createdAt,value
2024-01-06T00:02:09.473Z,12.10
2024-01-06T00:04:36.117Z,13.00
2024-01-06T00:07:02.739Z,12.47
2024-01-06T00:09:29.413Z,13.00
2024-01-06T00:11:56.075Z,12.37
2024-01-06T00:14:22.623Z,16.70
2024-01-06T00:16:49.237Z,13.67
2024-01-06T00:19:15.887Z,14.47
2024-01-06T00:21:42.737Z,13.70
2024-01-06T00:24:09.419Z,14.30
2024-01-06T00:26:36.142Z,13.90
2024-01-06T00:29:02.779Z,13.77
2024-01-06T00:31:29.475Z,12.90
2024-01-06T00:33:56.277Z,14.03
2024-01-06T00:36:22.934Z,13.40
2024-01-06T00:38:49.554Z,14.53
2024-01-06T00:41:16.433Z,15.57
2024-01-06T00:43:43.489Z,15.87
2024-01-06T00:46:10.113Z,16.07
2024-01-06T00:48:36.851Z,15.93
2024-01-06T00:51:03.961Z,15.20
2024-01-06T00:53:30.849Z,16.20
2024-01-06T00:55:57.474Z,16.83
2024-01-06T00:58:24.123Z,17.60
2024-01-06T01:00:51.088Z,16.60
2024-01-06T01:03:17.893Z,17.20
2024-01-06T01:05:44.735Z,17.40
2024-01-06T01:08:11.451Z,17.10
2024-01-06T01:10:38.033Z,18.70
2024-01-06T01:13:04.811Z,18.93
2024-01-06T01:15:31.581Z,18.70
2024-01-06T01:17:58.345Z,19.00
2024-01-06T01:20:25.084Z,19.30
2024-01-06T01:22:51.869Z,18.53
2024-01-06T01:25:18.472Z,18.50
2024-01-06T01:27:45.081Z,18.80
2024-01-06T01:30:12.031Z,18.47
2024-01-06T01:32:38.841Z,20.57
2024-01-06T01:35:05.738Z,20.37
2024-01-06T01:37:35.338Z,20.17
2024-01-06T01:40:07.959Z,20.53
2024-01-06T01:42:35.168Z,20.53
2024-01-06T01:45:02.115Z,22.27
2024-01-06T01:47:29.122Z,21.80
2024-01-06T01:49:56.932Z,21.63
2024-01-06T01:52:24.133Z,21.47
2024-01-06T01:54:53.270Z,21.77
2024-01-06T01:57:22.498Z,22.27
2024-01-06T01:59:50.097Z,28.92
2024-01-06T02:02:17.355Z,24.00
2024-01-06T02:04:46.355Z,24.23
2024-01-06T02:07:13.326Z,23.37
2024-01-06T02:09:40.681Z,23.43
2024-01-06T02:12:07.838Z,20.93
2024-01-06T02:14:34.937Z,22.87
2024-01-06T02:17:01.910Z,21.97
2024-01-06T02:19:35.768Z,23.13
2024-01-06T02:22:03.091Z,22.93
2024-01-06T02:24:29.936Z,22.10
2024-01-06T02:26:56.784Z,23.20
2024-01-06T02:29:23.823Z,21.90
2024-01-06T02:31:50.977Z,22.93
2024-01-06T02:34:18.208Z,21.27
2024-01-06T02:36:45.108Z,23.20
2024-01-06T02:39:12.043Z,23.13
2024-01-06T02:41:39.306Z,21.87
2024-01-06T02:44:06.557Z,21.83
2024-01-06T02:46:33.532Z,22.23
2024-01-06T02:49:00.677Z,21.50
2024-01-06T02:51:27.737Z,22.83
2024-01-06T02:53:54.536Z,21.97
2024-01-06T02:56:21.233Z,22.40
2024-01-06T02:58:47.815Z,22.20
2024-01-06T03:01:14.552Z,25.10
2024-01-06T03:03:41.308Z,22.20
2024-01-06T03:06:08.028Z,23.53
2024-01-06T03:08:35.871Z,23.37
2024-01-06T03:11:04.921Z,23.80
2024-01-06T03:13:31.600Z,21.03
2024-01-06T03:15:58.420Z,23.63
2024-01-06T03:18:25.284Z,21.70
2024-01-06T03:20:51.997Z,22.27
2024-01-06T03:23:18.636Z,23.50
2024-01-06T03:25:45.302Z,22.57
2024-01-06T03:28:11.968Z,23.13
2024-01-06T03:30:38.736Z,23.33
2024-01-06T03:33:05.537Z,22.00
2024-01-06T03:35:32.139Z,23.97
2024-01-06T03:37:58.844Z,24.50
2024-01-06T03:40:25.559Z,23.23
2024-01-06T03:42:52.156Z,24.53
2024-01-06T03:45:18.797Z,22.63
2024-01-06T03:47:45.434Z,22.70
2024-01-06T03:50:12.114Z,23.77
2024-01-06T03:52:38.653Z,24.83
2024-01-06T03:55:06.410Z,23.07
2024-01-06T03:57:33.018Z,24.00
2024-01-06T03:59:59.718Z,23.63
2024-01-06T04:02:26.382Z,24.80
2024-01-06T04:04:52.995Z,24.77
2024-01-06T04:07:19.634Z,24.07
2024-01-06T04:09:46.334Z,24.53
2024-01-06T04:12:13.047Z,23.93
2024-01-06T04:14:39.767Z,24.00
2024-01-06T04:17:06.361Z,24.03
2024-01-06T04:19:33.071Z,23.40
2024-01-06T04:22:00.940Z,22.60
2024-01-06T04:24:27.562Z,22.63
2024-01-06T04:26:54.210Z,25.00
2024-01-06T04:29:20.778Z,22.70
2024-01-06T04:31:47.427Z,23.00
2024-01-06T04:34:14.169Z,24.30
2024-01-06T04:36:41.114Z,23.17
2024-01-06T04:39:07.793Z,24.30
2024-01-06T04:41:34.446Z,23.50
2024-01-06T04:44:01.107Z,25.03
2024-01-06T04:46:27.712Z,25.13
2024-01-06T04:48:54.405Z,25.00
2024-01-06T04:51:21.140Z,24.23
2024-01-06T04:53:48.236Z,24.57
2024-01-06T04:56:14.858Z,24.23
2024-01-06T04:58:41.714Z,24.10
2024-01-06T05:01:09.334Z,23.53
2024-01-06T05:03:36.151Z,25.40
2024-01-06T05:06:03.041Z,24.43
2024-01-06T05:08:31.974Z,24.60
2024-01-06T05:10:58.652Z,24.00
2024-01-06T05:13:25.205Z,25.27
2024-01-06T05:15:51.831Z,24.93
2024-01-06T05:18:18.619Z,24.97
2024-01-06T05:20:45.352Z,25.07
2024-01-06T05:23:11.986Z,25.17
2024-01-06T05:25:38.943Z,22.57
2024-01-06T05:28:05.581Z,23.80
2024-01-06T05:30:32.318Z,23.90
2024-01-06T05:32:59.062Z,25.37
2024-01-06T05:35:25.721Z,27.37
2024-01-06T05:37:52.313Z,24.80
2024-01-06T05:40:18.898Z,25.77
2024-01-06T05:42:45.544Z,25.27
2024-01-06T05:45:13.937Z,26.97
2024-01-06T05:47:40.910Z,26.67
2024-01-06T05:50:10.460Z,25.60
2024-01-06T05:52:37.024Z,24.80
2024-01-06T05:55:03.882Z,26.50
2024-01-06T05:57:31.057Z,26.00
2024-01-06T05:59:57.889Z,27.53
2024-01-06T06:02:24.485Z,27.43
2024-01-06T06:04:51.155Z,28.80
2024-01-06T06:07:17.796Z,26.97
2024-01-06T06:09:44.727Z,26.03
2024-01-06T06:12:11.442Z,28.07
2024-01-06T06:14:38.029Z,27.33
2024-01-06T06:17:04.801Z,27.90
2024-01-06T06:19:32.287Z,27.67
2024-01-06T06:21:59.358Z,28.83
2024-01-06T06:24:26.005Z,28.97
2024-01-06T06:26:52.935Z,29.63
2024-01-06T06:29:21.951Z,26.80
2024-01-06T06:31:49.976Z,29.67
2024-01-06T06:34:17.035Z,28.10
2024-01-06T06:36:43.911Z,27.40
2024-01-06T06:39:10.607Z,27.67
2024-01-06T06:41:37.275Z,29.00
2024-01-06T06:44:03.895Z,28.40
2024-01-06T06:46:30.485Z,27.30
2024-01-06T06:48:57.149Z,29.33
2024-01-06T06:51:26.516Z,28.83
2024-01-06T06:53:53.414Z,29.00
2024-01-06T06:56:20.114Z,28.47
2024-01-06T06:58:46.718Z,27.93
2024-01-06T07:01:15.072Z,27.17
2024-01-06T07:03:41.775Z,28.17
2024-01-06T07:06:08.477Z,28.67
2024-01-06T07:08:35.053Z,27.37
2024-01-06T07:11:01.659Z,30.13
2024-01-06T07:13:28.270Z,28.33
2024-01-06T07:16:00.821Z,29.33
2024-01-06T07:18:34.815Z,28.70
2024-01-06T07:21:01.639Z,30.03
2024-01-06T07:23:28.290Z,28.73
2024-01-06T07:25:56.488Z,31.37
2024-01-06T07:28:23.037Z,29.30
2024-01-06T07:30:49.731Z,28.57
2024-01-06T07:33:16.420Z,28.17
2024-01-06T07:35:44.821Z,28.40
2024-01-06T07:38:11.580Z,27.83
2024-01-06T07:40:38.468Z,29.30
2024-01-06T07:43:05.609Z,28.17
2024-01-06T07:45:32.893Z,28.17
2024-01-06T07:48:00.122Z,37.60
2024-01-06T07:50:27.280Z,37.13
2024-01-06T07:52:54.167Z,41.80
2024-01-06T07:55:21.170Z,33.53
2024-01-06T07:57:47.845Z,31.27
2024-01-06T08:00:17.624Z,27.90
2024-01-06T08:02:45.814Z,29.47
2024-01-06T08:05:12.568Z,31.07
2024-01-06T08:07:39.146Z,31.37
2024-01-06T08:10:06.374Z,29.87
2024-01-06T08:12:33.166Z,34.40
2024-01-06T08:14:59.808Z,30.97
2024-01-06T08:17:26.436Z,34.58
2024-01-06T08:19:54.183Z,30.27
2024-01-06T08:22:20.778Z,31.37
2024-01-06T08:24:48.405Z,30.27
2024-01-06T08:27:15.089Z,31.17
2024-01-06T08:29:41.782Z,30.60
2024-01-06T08:32:08.487Z,31.93
2024-01-06T08:34:35.196Z,31.90
2024-01-06T08:37:01.879Z,31.00
2024-01-06T08:39:28.552Z,31.27
2024-01-06T08:41:56.812Z,30.70
2024-01-06T08:44:24.507Z,29.77
2024-01-06T08:46:51.412Z,30.60
2024-01-06T08:49:18.506Z,33.30
2024-01-06T08:51:45.404Z,30.97
2024-01-06T08:54:12.072Z,31.43
2024-01-06T08:56:39.490Z,32.67
2024-01-06T08:59:06.535Z,31.10
2024-01-06T09:01:34.011Z,32.53
2024-01-06T09:04:00.701Z,30.83
2024-01-06T09:06:27.397Z,31.83
2024-01-06T09:08:54.015Z,32.60
2024-01-06T09:11:20.613Z,32.30
2024-01-06T09:13:47.213Z,32.53
2024-01-06T09:16:13.921Z,32.13
2024-01-06T09:18:41.098Z,45.40
2024-01-06T09:21:08.274Z,31.73
2024-01-06T09:23:34.961Z,31.60
2024-01-06T09:26:01.622Z,30.43
2024-01-06T09:28:29.030Z,31.70
2024-01-06T09:30:57.223Z,30.93
2024-01-06T09:33:24.278Z,30.77
2024-01-06T09:35:51.972Z,31.30
2024-01-06T09:38:19.232Z,29.93
2024-01-06T09:40:46.828Z,29.73
2024-01-06T09:43:13.395Z,30.57
2024-01-06T09:45:40.738Z,30.10
2024-01-06T09:48:18.191Z,28.87
2024-01-06T09:50:48.002Z,30.77
2024-01-06T09:53:15.228Z,31.47
2024-01-06T09:55:42.038Z,30.07
2024-01-06T09:58:09.806Z,28.53
2024-01-06T10:00:36.576Z,29.57
2024-01-06T10:03:03.279Z,30.27
2024-01-06T10:05:30.058Z,31.60
2024-01-06T10:07:56.762Z,30.73
2024-01-06T10:10:23.685Z,29.47
2024-01-06T10:12:53.765Z,30.90
2024-01-06T10:15:20.925Z,29.80
2024-01-06T10:17:47.743Z,30.57
2024-01-06T10:20:16.294Z,29.63
2024-01-06T10:22:43.302Z,29.70
2024-01-06T10:25:12.463Z,29.60
2024-01-06T10:27:39.721Z,28.67
2024-01-06T10:30:10.177Z,29.90
2024-01-06T10:32:40.001Z,30.33
2024-01-06T10:35:08.150Z,30.07
2024-01-06T10:37:34.929Z,29.40
2024-01-06T10:40:11.425Z,29.10
2024-01-06T10:42:40.748Z,35.40
2024-01-06T10:45:09.202Z,29.90
2024-01-06T10:47:39.423Z,30.20
2024-01-06T10:50:06.602Z,28.10
2024-01-06T10:52:33.459Z,28.37
2024-01-06T10:55:00.318Z,28.30
2024-01-06T10:57:29.218Z,27.80
2024-01-06T10:59:56.933Z,27.40
2024-01-06T11:02:26.287Z,27.13
2024-01-06T11:04:53.105Z,26.97
2024-01-06T11:07:21.184Z,33.53
2024-01-06T11:09:59.651Z,26.87
2024-01-06T11:12:29.331Z,28.13
2024-01-06T11:14:56.015Z,27.90
2024-01-06T11:17:55.466Z,27.23
2024-01-06T11:20:31.388Z,28.40
2024-01-06T11:23:17.917Z,26.93
2024-01-06T11:25:44.565Z,27.30
2024-01-06T11:28:13.556Z,27.90
2024-01-06T11:30:41.565Z,27.47
2024-01-06T11:33:09.565Z,26.97
2024-01-06T11:35:38.317Z,27.50
2024-01-06T11:38:05.339Z,26.83
2024-01-06T11:40:33.630Z,26.70
2024-01-06T11:43:02.039Z,27.27
2024-01-06T11:45:28.892Z,26.63
2024-01-06T11:47:56.434Z,26.67
2024-01-06T11:50:23.023Z,26.73
2024-01-06T11:52:49.697Z,27.50
2024-01-06T11:55:18.591Z,28.43
2024-01-06T11:57:45.372Z,29.60
2024-01-06T12:00:13.071Z,27.70
2024-01-06T12:02:39.805Z,27.00
2024-01-06T12:05:06.649Z,28.73
2024-01-06T12:07:35.969Z,27.03
2024-01-06T12:10:03.711Z,29.37
2024-01-06T12:12:30.405Z,30.00
2024-01-06T12:14:56.979Z,29.53
2024-01-06T12:17:23.835Z,29.93
2024-01-06T12:19:50.459Z,30.73
2024-01-06T12:22:17.654Z,28.60
2024-01-06T12:24:44.417Z,30.73
2024-01-06T12:27:11.521Z,29.73
2024-01-06T12:29:44.541Z,31.70
2024-01-06T12:32:11.725Z,29.53
2024-01-06T12:34:38.539Z,30.77
2024-01-06T12:37:05.410Z,32.20
2024-01-06T12:39:32.244Z,31.83
2024-01-06T12:42:01.438Z,30.13
2024-01-06T12:44:28.819Z,29.97
2024-01-06T12:46:55.580Z,39.03
2024-01-06T12:49:22.217Z,31.20
2024-01-06T12:51:48.899Z,33.87
2024-01-06T12:54:15.515Z,31.00
2024-01-06T12:56:42.217Z,33.27
2024-01-06T12:59:09.634Z,29.83
2024-01-06T13:01:36.574Z,31.03
2024-01-06T13:04:03.616Z,33.97
2024-01-06T13:06:31.451Z,31.93
2024-01-06T13:08:58.168Z,32.53
2024-01-06T13:11:25.492Z,32.60
2024-01-06T13:13:52.555Z,38.10
2024-01-06T13:16:19.273Z,31.63
2024-01-06T13:18:46.225Z,37.13
2024-01-06T13:21:12.949Z,34.50
2024-01-06T13:23:39.534Z,34.23
2024-01-06T13:26:06.174Z,36.30
2024-01-06T13:28:32.780Z,33.80
2024-01-06T13:30:59.562Z,32.17
2024-01-06T13:33:26.476Z,32.87
2024-01-06T13:35:53.266Z,32.33
2024-01-06T13:38:19.852Z,32.93
2024-01-06T13:40:46.474Z,41.00
2024-01-06T13:43:16.796Z,33.93
2024-01-06T13:45:44.710Z,33.30
2024-01-06T13:48:11.637Z,33.67
2024-01-06T13:50:38.348Z,37.57
2024-01-06T13:53:05.135Z,43.03
2024-01-06T13:55:31.683Z,34.47
2024-01-06T13:57:58.325Z,37.30
2024-01-06T14:00:25.661Z,34.60
2024-01-06T14:02:52.293Z,34.27
2024-01-06T14:05:20.686Z,34.03
2024-01-06T14:07:50.101Z,33.43
2024-01-06T14:10:17.146Z,31.63
2024-01-06T14:12:43.830Z,32.43
2024-01-06T14:15:10.631Z,32.23
2024-01-06T14:17:37.304Z,31.83
2024-01-06T14:20:04.364Z,32.40
2024-01-06T14:22:31.016Z,31.57
2024-01-06T14:24:57.673Z,31.77
2024-01-06T14:27:24.577Z,33.90
2024-01-06T14:29:51.254Z,36.10
2024-01-06T14:32:18.146Z,31.97
2024-01-06T14:34:44.841Z,31.33
2024-01-06T14:37:11.423Z,29.60
2024-01-06T14:39:38.408Z,29.97
2024-01-06T14:42:05.196Z,30.67
2024-01-06T14:44:31.987Z,32.00
2024-01-06T14:46:58.585Z,33.10
2024-01-06T14:49:25.354Z,34.67
2024-01-06T14:51:52.182Z,34.33
2024-01-06T14:54:18.943Z,33.07
2024-01-06T14:56:45.600Z,33.90
2024-01-06T14:59:12.187Z,32.17
2024-01-06T15:01:39.157Z,32.70
2024-01-06T15:04:06.038Z,34.47
2024-01-06T15:06:32.770Z,31.07
2024-01-06T15:08:59.379Z,31.47
2024-01-06T15:11:25.993Z,33.03
2024-01-06T15:13:52.866Z,32.87
2024-01-06T15:16:19.437Z,30.00
2024-01-06T15:18:46.219Z,35.73
2024-01-06T15:21:13.689Z,32.30
2024-01-06T15:23:40.257Z,39.77
2024-01-06T15:26:06.835Z,35.47
2024-01-06T15:28:34.101Z,30.43
2024-01-06T15:31:01.456Z,30.67
2024-01-06T15:33:28.500Z,32.17
2024-01-06T15:35:55.208Z,31.43
2024-01-06T15:38:21.772Z,32.17
2024-01-06T15:40:49.051Z,32.07
2024-01-06T15:43:15.754Z,36.93
2024-01-06T15:45:42.766Z,36.23
2024-01-06T15:48:10.756Z,33.00
2024-01-06T15:50:37.781Z,36.33
2024-01-06T15:53:05.171Z,36.23
2024-01-06T15:55:31.894Z,32.33
2024-01-06T15:57:58.578Z,41.73
2024-01-06T16:00:25.544Z,29.57
2024-01-06T16:02:52.885Z,31.40
2024-01-06T16:05:19.606Z,29.33
2024-01-06T16:07:46.220Z,43.23
2024-01-06T16:10:12.775Z,33.80
2024-01-06T16:12:45.085Z,31.97
2024-01-06T16:15:11.780Z,39.47
2024-01-06T16:17:38.576Z,30.33
2024-01-06T16:20:07.423Z,31.27
2024-01-06T16:22:34.537Z,32.17
2024-01-06T16:25:01.319Z,31.07
2024-01-06T16:27:27.982Z,31.97
2024-01-06T16:29:54.558Z,31.47
2024-01-06T16:32:22.468Z,31.73
2024-01-06T16:34:49.397Z,36.53
2024-01-06T16:37:18.097Z,33.47
2024-01-06T16:39:44.775Z,32.23
2024-01-06T16:42:11.472Z,31.20
2024-01-06T16:44:38.068Z,31.73
2024-01-06T16:47:04.831Z,33.00
2024-01-06T16:49:33.588Z,32.67
2024-01-06T16:52:00.618Z,37.70
2024-01-06T16:54:27.558Z,33.30
2024-01-06T16:56:54.193Z,41.53
2024-01-06T16:59:20.841Z,40.63
2024-01-06T17:01:47.574Z,42.00
2024-01-06T17:04:14.540Z,32.43
2024-01-06T17:06:41.267Z,39.83
2024-01-06T17:09:07.875Z,36.53
2024-01-06T17:11:34.472Z,34.47
2024-01-06T17:14:02.117Z,72.70
2024-01-06T17:16:28.672Z,57.30
2024-01-06T17:18:55.787Z,53.83
2024-01-06T17:21:22.650Z,54.03
2024-01-06T17:23:51.964Z,38.20
2024-01-06T17:26:18.638Z,36.23
2024-01-06T17:28:45.338Z,44.13
2024-01-06T17:31:11.988Z,34.60
2024-01-06T17:33:38.843Z,41.33
2024-01-06T17:36:05.776Z,30.93
2024-01-06T17:38:32.444Z,34.33
2024-01-06T17:40:58.986Z,30.07
2024-01-06T17:43:25.547Z,28.67
2024-01-06T17:45:52.211Z,28.60
2024-01-06T17:48:19.189Z,54.23
2024-01-06T17:50:46.669Z,29.80
2024-01-06T17:53:13.238Z,32.60
2024-01-06T17:55:39.929Z,34.93
2024-01-06T17:58:06.585Z,29.00
2024-01-06T18:00:33.821Z,31.30
2024-01-06T18:03:00.512Z,50.90
2024-01-06T18:05:27.409Z,69.53
2024-01-06T18:07:54.938Z,55.40
2024-01-06T18:10:21.661Z,36.40
2024-01-06T18:12:48.318Z,51.93
2024-01-06T18:15:14.936Z,28.53
2024-01-06T18:17:41.822Z,29.80
2024-01-06T18:20:09.504Z,24.93
2024-01-06T18:22:36.108Z,26.50
2024-01-06T18:25:02.741Z,24.47
2024-01-06T18:27:30.413Z,23.03
2024-01-06T18:29:57.637Z,22.40
2024-01-06T18:32:24.404Z,22.07
2024-01-06T18:34:51.064Z,21.87
2024-01-06T18:37:17.753Z,23.07
2024-01-06T18:39:45.122Z,23.70
2024-01-06T18:42:14.807Z,23.37
2024-01-06T18:44:41.780Z,24.07
2024-01-06T18:47:12.042Z,25.97
2024-01-06T18:49:38.829Z,35.37
2024-01-06T18:52:05.647Z,26.30
2024-01-06T18:54:38.406Z,23.33
2024-01-06T18:57:08.793Z,25.77
2024-01-06T18:59:35.399Z,23.33
2024-01-06T19:02:02.123Z,23.23
2024-01-06T19:04:28.754Z,28.55
2024-01-06T19:06:55.510Z,23.03
2024-01-06T19:09:22.206Z,24.20
2024-01-06T19:11:49.205Z,25.10
2024-01-06T19:14:15.875Z,25.30
2024-01-06T19:16:44.550Z,26.37
2024-01-06T19:19:11.329Z,25.43
2024-01-06T19:21:38.009Z,24.03
2024-01-06T19:24:04.894Z,23.67
2024-01-06T19:26:31.793Z,24.93
2024-01-06T19:28:58.728Z,23.07
2024-01-06T19:31:25.613Z,22.63
2024-01-06T19:33:54.730Z,21.67
2024-01-06T19:36:21.768Z,23.47
2024-01-06T19:38:48.919Z,25.07
2024-01-06T19:41:15.512Z,23.93
2024-01-06T19:43:42.155Z,19.70
2024-01-06T19:46:10.915Z,19.37
2024-01-06T19:48:38.700Z,18.87
2024-01-06T19:51:05.923Z,19.60
2024-01-06T19:53:32.562Z,18.77
2024-01-06T19:56:00.765Z,17.83
2024-01-06T19:58:27.693Z,20.20
2024-01-06T20:00:54.427Z,18.13
2024-01-06T20:03:21.069Z,19.17
2024-01-06T20:05:47.698Z,18.63
2024-01-06T20:08:14.320Z,19.17
2024-01-06T20:10:41.194Z,18.37
2024-01-06T20:13:08.466Z,18.63
2024-01-06T20:15:35.270Z,19.67
2024-01-06T20:18:01.883Z,19.37
2024-01-06T20:20:29.058Z,20.53
2024-01-06T20:22:55.672Z,21.17
2024-01-06T20:25:22.363Z,21.80
2024-01-06T20:27:49.417Z,20.43
2024-01-06T20:30:17.787Z,20.40
2024-01-06T20:32:44.925Z,20.87
2024-01-06T20:35:11.862Z,20.57
2024-01-06T20:37:38.546Z,20.43
2024-01-06T20:40:05.459Z,20.30
2024-01-06T20:42:32.476Z,20.90
2024-01-06T20:44:59.119Z,20.83
2024-01-06T20:47:26.949Z,19.40
2024-01-06T20:49:53.578Z,19.70
2024-01-06T20:52:20.116Z,18.10
2024-01-06T20:54:46.708Z,18.13
2024-01-06T20:57:13.337Z,17.83
2024-01-06T20:59:41.139Z,19.30
2024-01-06T21:02:07.767Z,19.80
2024-01-06T21:04:34.380Z,17.27
2024-01-06T21:07:01.023Z,16.77
2024-01-06T21:09:27.746Z,26.43
2024-01-06T21:11:55.579Z,17.70
2024-01-06T21:14:22.446Z,15.83
2024-01-06T21:16:51.543Z,15.37
2024-01-06T21:19:19.447Z,14.23
2024-01-06T21:21:46.204Z,14.77
2024-01-06T21:24:12.853Z,17.93
2024-01-06T21:26:39.521Z,15.90
2024-01-06T21:29:06.312Z,24.73
2024-01-06T21:31:33.607Z,24.60
2024-01-06T21:34:00.397Z,20.00
2024-01-06T21:36:27.242Z,17.50
2024-01-06T21:38:53.892Z,16.47
2024-01-06T21:41:21.836Z,13.33
2024-01-06T21:43:48.581Z,13.97
2024-01-06T21:46:15.204Z,12.87
2024-01-06T21:48:41.965Z,11.50
2024-01-06T21:51:09.484Z,11.43
2024-01-06T21:53:36.673Z,11.57
2024-01-06T21:56:04.496Z,11.20
2024-01-06T21:58:31.221Z,14.90
2024-01-06T22:00:59.127Z,12.53
2024-01-06T22:03:25.933Z,14.00
2024-01-06T22:05:52.697Z,13.37
2024-01-06T22:08:19.589Z,12.83
2024-01-06T22:10:46.217Z,14.47
2024-01-06T22:13:12.887Z,13.67
2024-01-06T22:15:39.545Z,12.70
2024-01-06T22:18:06.893Z,14.03
2024-01-06T22:20:33.536Z,14.07
2024-01-06T22:23:00.852Z,12.73
2024-01-06T22:25:27.540Z,14.40
2024-01-06T22:27:54.318Z,14.13
2024-01-06T22:30:21.187Z,12.90
2024-01-06T22:32:50.688Z,13.80
2024-01-06T22:35:18.109Z,13.00
2024-01-06T22:37:46.492Z,12.97
2024-01-06T22:40:13.234Z,15.07
2024-01-06T22:42:39.830Z,12.10
2024-01-06T22:45:06.625Z,13.73
2024-01-06T22:47:33.297Z,12.27
2024-01-06T22:49:59.991Z,12.77
2024-01-06T22:52:26.553Z,13.30
2024-01-06T22:54:53.141Z,12.77
2024-01-06T22:57:19.737Z,14.07
2024-01-06T22:59:46.436Z,12.80
2024-01-06T23:02:13.037Z,12.60
2024-01-06T23:04:40.102Z,12.13
2024-01-06T23:07:06.821Z,12.87
2024-01-06T23:09:33.463Z,13.73
2024-01-06T23:12:00.154Z,12.27
2024-01-06T23:14:26.748Z,12.50
2024-01-06T23:16:53.436Z,12.27
2024-01-06T23:19:20.236Z,11.70
2024-01-06T23:21:46.909Z,12.53
2024-01-06T23:24:13.791Z,12.37
2024-01-06T23:26:40.477Z,12.77
2024-01-06T23:29:07.175Z,13.17
2024-01-06T23:31:34.136Z,11.63
2024-01-06T23:34:00.947Z,13.63
2024-01-06T23:36:27.804Z,16.77
2024-01-06T23:38:54.465Z,10.77
2024-01-06T23:41:21.153Z,11.53
2024-01-06T23:43:47.749Z,10.60
2024-01-06T23:46:14.419Z,10.63
2024-01-06T23:48:41.057Z,11.23
2024-01-06T23:51:07.682Z,10.80
2024-01-06T23:53:34.337Z,11.50
2024-01-06T23:56:00.937Z,16.07
2024-01-06T23:58:27.553Z,10.97
